THA338 VOMM-VTBS
Flight info
| Callsign | THA338 |
|---|---|
| Flight time | N/A |
| Altitude | 39000 |
| Route | IDASO2B IDASO P761 PPB P762 DWI L877 MIGAR L524 IBETO WILLA1C |
| Aircraft | A333/H-SDE3GHIJ2J3J5M1RVWXY/LB2D1 |
Departure
| Time | 2026-04-30 20:27 |
|---|---|
| Airport | Chennai International Airport (VOMM) |
Arrival
| Time | N/A |
|---|---|
| Airport | Suvarnabhumi Airport (VTBS) |
| Time | Latitude | Longitude | Altitude | Speed | Heading |
|---|---|---|---|---|---|
| 2026-04-30 19:26 | 12.98279 | 80.16119 | 51 ft | 0 kts | 160° |
| 2026-04-30 20:06 | 12.98282 | 80.16117 | 51 ft | 3 kts | 160° |
| 2026-04-30 20:07 | 12.98302 | 80.16109 | 47 ft | 3 kts | 155° |
| 2026-04-30 20:07 | 12.98320 | 80.16103 | 46 ft | 1 kts | 181° |
| 2026-04-30 20:07 | 12.98361 | 80.16104 | 45 ft | 3 kts | 185° |
| 2026-04-30 20:08 | 12.98374 | 80.16105 | 46 ft | 1 kts | 189° |
| 2026-04-30 20:08 | 12.98376 | 80.16105 | 46 ft | 0 kts | 189° |
| 2026-04-30 20:14 | 12.98371 | 80.16103 | 46 ft | 1 kts | 200° |
| 2026-04-30 20:15 | 12.98364 | 80.16098 | 48 ft | 2 kts | 214° |
| 2026-04-30 20:15 | 12.98353 | 80.16085 | 47 ft | 3 kts | 230° |
| 2026-04-30 20:15 | 12.98338 | 80.16063 | 49 ft | 5 kts | 239° |
| 2026-04-30 20:15 | 12.98323 | 80.16028 | 47 ft | 6 kts | 248° |
| 2026-04-30 20:16 | 12.98305 | 80.15980 | 47 ft | 8 kts | 250° |
| 2026-04-30 20:16 | 12.98293 | 80.15921 | 51 ft | 9 kts | 268° |
| 2026-04-30 20:16 | 12.98305 | 80.15853 | 48 ft | 10 kts | 285° |
| 2026-04-30 20:16 | 12.98335 | 80.15784 | 47 ft | 11 kts | 313° |
| 2026-04-30 20:17 | 12.98394 | 80.15794 | 47 ft | 10 kts | 49° |
| 2026-04-30 20:17 | 12.98425 | 80.15860 | 49 ft | 11 kts | 68° |
| 2026-04-30 20:17 | 12.98456 | 80.15940 | 47 ft | 13 kts | 68° |
| 2026-04-30 20:17 | 12.98490 | 80.16029 | 46 ft | 14 kts | 68° |
| 2026-04-30 20:18 | 12.98527 | 80.16127 | 47 ft | 16 kts | 69° |
| 2026-04-30 20:18 | 12.98569 | 80.16233 | 47 ft | 17 kts | 68° |
| 2026-04-30 20:18 | 12.98612 | 80.16349 | 50 ft | 18 kts | 70° |
| 2026-04-30 20:18 | 12.98657 | 80.16471 | 50 ft | 19 kts | 68° |
| 2026-04-30 20:19 | 12.98707 | 80.16600 | 47 ft | 20 kts | 69° |
| 2026-04-30 20:19 | 12.98759 | 80.16738 | 51 ft | 21 kts | 69° |
| 2026-04-30 20:19 | 12.98813 | 80.16884 | 48 ft | 23 kts | 70° |
| 2026-04-30 20:19 | 12.98870 | 80.17037 | 51 ft | 23 kts | 69° |
| 2026-04-30 20:20 | 12.98926 | 80.17183 | 49 ft | 21 kts | 66° |
| 2026-04-30 20:20 | 12.98990 | 80.17323 | 49 ft | 22 kts | 68° |
| 2026-04-30 20:20 | 12.99046 | 80.17469 | 50 ft | 23 kts | 69° |
| 2026-04-30 20:20 | 12.99105 | 80.17622 | 50 ft | 23 kts | 68° |
| 2026-04-30 20:21 | 12.99170 | 80.17740 | 47 ft | 4 kts | 53° |
| 2026-04-30 20:21 | 12.99193 | 80.17766 | 50 ft | 6 kts | 44° |
| 2026-04-30 20:21 | 12.99221 | 80.17797 | 51 ft | 6 kts | 51° |
| 2026-04-30 20:21 | 12.99247 | 80.17840 | 48 ft | 8 kts | 62° |
| 2026-04-30 20:22 | 12.99272 | 80.17893 | 48 ft | 9 kts | 64° |
| 2026-04-30 20:22 | 12.99295 | 80.17948 | 50 ft | 6 kts | 69° |
| 2026-04-30 20:22 | 12.99309 | 80.17990 | 49 ft | 7 kts | 71° |
| 2026-04-30 20:22 | 12.99322 | 80.18028 | 48 ft | 4 kts | 71° |
| 2026-04-30 20:23 | 12.99325 | 80.18035 | 49 ft | 0 kts | 71° |
| 2026-04-30 20:24 | 12.99326 | 80.18040 | 55 ft | 2 kts | 70° |
| 2026-04-30 20:24 | 12.99332 | 80.18056 | 50 ft | 3 kts | 70° |
| 2026-04-30 20:25 | 12.99366 | 80.18113 | 51 ft | 6 kts | 41° |
| 2026-04-30 20:25 | 12.99403 | 80.18116 | 54 ft | 6 kts | 342° |
| 2026-04-30 20:26 | 12.99433 | 80.18040 | 51 ft | 7 kts | 263° |
| 2026-04-30 20:26 | 12.99341 | 80.17745 | 54 ft | 66 kts | 249° |
| 2026-04-30 20:26 | 12.99081 | 80.17093 | 49 ft | 129 kts | 250° |
| 2026-04-30 20:27 | 12.98361 | 80.14897 | 971 ft | 178 kts | 259° |
| 2026-04-30 20:27 | 12.99666 | 80.12723 | 2324 ft | 216 kts | 334° |
| 2026-04-30 20:28 | 13.02913 | 80.12246 | 3304 ft | 260 kts | 3° |
| 2026-04-30 20:28 | 13.06614 | 80.13020 | 4635 ft | 277 kts | 10° |
| 2026-04-30 20:29 | 13.10477 | 80.13636 | 5704 ft | 288 kts | 8° |
| 2026-04-30 20:30 | 13.16452 | 80.14499 | 5825 ft | 289 kts | 7° |
| 2026-04-30 20:30 | 13.21527 | 80.17174 | 5820 ft | 285 kts | 65° |
| 2026-04-30 20:31 | 13.23570 | 80.22902 | 5818 ft | 286 kts | 72° |
| 2026-04-30 20:32 | 13.25540 | 80.28672 | 5821 ft | 286 kts | 71° |
| 2026-04-30 20:32 | 13.26867 | 80.32514 | 5813 ft | 285 kts | 72° |
| 2026-04-30 20:33 | 13.27531 | 80.34433 | 5813 ft | 286 kts | 72° |
| 2026-04-30 20:33 | 13.28885 | 80.38272 | 5815 ft | 285 kts | 69° |
| 2026-04-30 20:33 | 13.29565 | 80.40154 | 5811 ft | 285 kts | 70° |
| 2026-04-30 20:34 | 13.30284 | 80.43448 | 5925 ft | 283 kts | 96° |
| 2026-04-30 20:34 | 13.28741 | 80.47825 | 7612 ft | 280 kts | 113° |
| 2026-04-30 20:35 | 13.27937 | 80.49648 | 8438 ft | 281 kts | 112° |
| 2026-04-30 20:35 | 13.27126 | 80.51488 | 9263 ft | 284 kts | 112° |
| 2026-04-30 20:35 | 13.25472 | 80.55264 | 10464 ft | 304 kts | 111° |
| 2026-04-30 20:36 | 13.24889 | 80.56606 | 10654 ft | 317 kts | 112° |
| 2026-04-30 20:36 | 13.23638 | 80.59486 | 11017 ft | 343 kts | 112° |
| 2026-04-30 20:36 | 13.21610 | 80.64135 | 11882 ft | 366 kts | 112° |
| 2026-04-30 20:37 | 13.20572 | 80.66508 | 12453 ft | 372 kts | 111° |
| 2026-04-30 20:37 | 13.19503 | 80.68950 | 13060 ft | 377 kts | 112° |
| 2026-04-30 20:37 | 13.18420 | 80.71421 | 13677 ft | 382 kts | 110° |
| 2026-04-30 20:37 | 13.17324 | 80.73925 | 14221 ft | 387 kts | 110° |
| 2026-04-30 20:38 | 13.16590 | 80.75601 | 14589 ft | 390 kts | 111° |
| 2026-04-30 20:38 | 13.15474 | 80.78147 | 15192 ft | 392 kts | 112° |
| 2026-04-30 20:38 | 13.13993 | 80.81583 | 15981 ft | 396 kts | 108° |
| 2026-04-30 20:39 | 13.12843 | 80.86130 | 16888 ft | 399 kts | 94° |
| 2026-04-30 20:39 | 13.12489 | 80.89942 | 17600 ft | 403 kts | 91° |
| 2026-04-30 20:39 | 13.12261 | 80.92821 | 18186 ft | 405 kts | 91° |
| 2026-04-30 20:40 | 13.11793 | 80.98644 | 19012 ft | 415 kts | 91° |
| 2026-04-30 20:40 | 13.11552 | 81.01574 | 19372 ft | 420 kts | 91° |
| 2026-04-30 20:40 | 13.11304 | 81.04578 | 19775 ft | 424 kts | 92° |
| 2026-04-30 20:41 | 13.10796 | 81.10676 | 20494 ft | 435 kts | 93° |
| 2026-04-30 20:41 | 13.10620 | 81.12769 | 20794 ft | 436 kts | 93° |
| 2026-04-30 20:41 | 13.10271 | 81.16895 | 21322 ft | 442 kts | 93° |